createdAt,value
2016-11-28T00:00:40.094Z,5.68
2016-11-28T00:01:40.103Z,5.73
2016-11-28T00:02:40.246Z,5.72
2016-11-28T00:03:40.255Z,5.64
2016-11-28T00:04:40.265Z,5.66
2016-11-28T00:05:40.271Z,5.62
2016-11-28T00:06:40.275Z,5.65
2016-11-28T00:07:40.294Z,5.62
2016-11-28T00:08:40.295Z,5.68
2016-11-28T00:09:40.303Z,5.66
2016-11-28T00:10:40.315Z,5.68
2016-11-28T00:11:40.333Z,5.66
2016-11-28T00:12:40.320Z,5.64
2016-11-28T00:13:40.328Z,5.72
2016-11-28T00:14:40.371Z,5.73
2016-11-28T00:15:40.379Z,5.64
2016-11-28T00:16:40.423Z,5.65
2016-11-28T00:17:40.394Z,5.65
2016-11-28T00:18:40.402Z,5.64
2016-11-28T00:19:40.411Z,5.61
2016-11-28T00:20:40.419Z,5.69
2016-11-28T00:21:40.419Z,5.66
2016-11-28T00:22:40.427Z,5.65
2016-11-28T00:23:40.435Z,5.69
2016-11-28T00:24:40.480Z,5.62
2016-11-28T00:25:40.454Z,5.65
2016-11-28T00:26:40.463Z,5.65
2016-11-28T00:27:40.421Z,5.65
2016-11-28T00:28:40.429Z,5.65
2016-11-28T00:29:40.437Z,5.68
2016-11-28T00:30:40.448Z,5.71
2016-11-28T00:31:40.447Z,5.65
2016-11-28T00:32:40.457Z,5.69
2016-11-28T00:33:40.466Z,5.64
2016-11-28T00:34:40.472Z,5.64
2016-11-28T00:35:40.484Z,5.71
2016-11-28T00:36:40.491Z,5.64
2016-11-28T00:37:40.487Z,5.68
2016-11-28T00:38:40.499Z,5.69
2016-11-28T00:39:40.492Z,5.62
2016-11-28T00:40:40.510Z,5.65
2016-11-28T00:41:40.524Z,5.71
2016-11-28T00:42:40.539Z,5.68
2016-11-28T00:43:40.545Z,5.69
2016-11-28T00:44:40.559Z,5.64
2016-11-28T00:45:40.577Z,5.61
2016-11-28T00:46:40.619Z,5.61
2016-11-28T00:47:40.597Z,5.61
2016-11-28T00:48:40.609Z,5.72
2016-11-28T00:49:40.627Z,5.69
2016-11-28T00:50:40.644Z,5.68
2016-11-28T00:51:40.647Z,5.65
2016-11-28T00:52:40.664Z,5.68
2016-11-28T00:53:40.671Z,5.62
2016-11-28T00:54:40.694Z,5.66
2016-11-28T00:55:40.697Z,5.65
2016-11-28T00:56:40.707Z,5.64
2016-11-28T00:57:40.723Z,5.62
2016-11-28T00:58:40.987Z,5.72
2016-11-28T00:59:40.748Z,5.68
2016-11-28T01:00:40.767Z,5.66
2016-11-28T01:01:40.794Z,5.65
2016-11-28T01:02:40.789Z,5.64
2016-11-28T01:03:40.807Z,5.64
2016-11-28T01:04:40.820Z,5.64
2016-11-28T01:05:40.831Z,5.59
2016-11-28T01:06:40.839Z,5.66
2016-11-28T01:07:40.859Z,5.65
2016-11-28T01:08:40.875Z,5.57
2016-11-28T01:09:40.888Z,5.64
2016-11-28T01:10:41.208Z,5.64
2016-11-28T01:11:40.902Z,5.68
2016-11-28T01:12:40.923Z,5.68
2016-11-28T01:13:40.927Z,5.64
2016-11-28T01:14:40.943Z,5.69
2016-11-28T01:15:40.957Z,5.64
2016-11-28T01:16:40.969Z,5.61
2016-11-28T01:17:40.981Z,5.64
2016-11-28T01:18:40.991Z,5.57
2016-11-28T01:19:41.008Z,5.61
2016-11-28T01:20:41.018Z,5.64
2016-11-28T01:21:41.051Z,5.65
2016-11-28T01:22:41.045Z,5.56
2016-11-28T01:23:41.062Z,5.68
2016-11-28T01:24:41.066Z,5.64
2016-11-28T01:25:41.080Z,5.66
2016-11-28T01:26:41.094Z,5.64
2016-11-28T01:27:41.102Z,5.62
2016-11-28T01:28:41.122Z,5.62
2016-11-28T01:29:41.452Z,5.62
2016-11-28T01:30:41.145Z,5.65
2016-11-28T01:31:41.154Z,5.65
2016-11-28T01:32:41.171Z,5.64
2016-11-28T01:33:41.181Z,5.56
2016-11-28T01:34:41.194Z,5.59
2016-11-28T01:35:41.205Z,5.61
2016-11-28T01:36:41.213Z,5.61
2016-11-28T01:37:41.246Z,5.59
2016-11-28T01:38:41.249Z,5.62
2016-11-28T01:39:41.258Z,5.57
2016-11-28T01:40:41.276Z,5.56
2016-11-28T01:41:41.277Z,5.56
2016-11-28T01:42:41.295Z,5.56
2016-11-28T01:43:41.308Z,5.64
2016-11-28T01:44:41.317Z,5.54
2016-11-28T01:45:41.335Z,5.54
2016-11-28T01:46:41.337Z,5.59
2016-11-28T01:47:41.356Z,5.54
2016-11-28T01:48:41.368Z,5.53
2016-11-28T01:49:41.382Z,5.57
2016-11-28T01:50:41.397Z,5.56
2016-11-28T01:51:41.428Z,5.64
2016-11-28T01:52:41.417Z,5.51
2016-11-28T01:53:41.431Z,5.47
2016-11-28T01:54:41.448Z,5.54
2016-11-28T01:55:41.455Z,5.48
2016-11-28T01:56:41.469Z,5.47
2016-11-28T01:57:41.491Z,5.5
2016-11-28T01:58:41.494Z,5.51
2016-11-28T01:59:41.508Z,5.56
2016-11-28T02:00:41.521Z,5.47
2016-11-28T02:01:41.532Z,5.51
2016-11-28T02:02:41.542Z,5.47
2016-11-28T02:03:41.553Z,5.51
2016-11-28T02:04:41.567Z,5.53
2016-11-28T02:05:41.578Z,5.61
2016-11-28T02:06:41.591Z,5.56
2016-11-28T02:07:41.606Z,5.53
2016-11-28T02:08:41.616Z,5.5
2016-11-28T02:09:41.632Z,5.57
2016-11-28T02:10:41.643Z,5.61
2016-11-28T02:11:41.691Z,5.56
2016-11-28T02:12:41.673Z,5.51
2016-11-28T02:13:41.680Z,5.47
2016-11-28T02:14:41.691Z,5.5
2016-11-28T02:15:41.708Z,5.54
2016-11-28T02:16:41.718Z,5.53
2016-11-28T02:17:41.730Z,5.56
2016-11-28T02:18:41.752Z,5.5
2016-11-28T02:19:41.758Z,5.56
2016-11-28T02:20:41.768Z,5.51
2016-11-28T02:21:41.783Z,5.51
2016-11-28T02:22:41.808Z,5.44
2016-11-28T02:23:41.806Z,5.44
2016-11-28T02:24:41.819Z,5.47
2016-11-28T02:25:41.840Z,5.46
2016-11-28T02:26:41.865Z,5.43
2016-11-28T02:27:41.859Z,5.48
2016-11-28T02:28:41.869Z,5.46
2016-11-28T02:29:41.884Z,5.46
2016-11-28T02:30:41.899Z,5.47
2016-11-28T02:31:41.903Z,5.44
2016-11-28T02:32:42.033Z,5.39
2016-11-28T02:33:42.042Z,5.43
2016-11-28T02:34:42.042Z,5.43
2016-11-28T02:35:42.045Z,5.39
2016-11-28T02:36:42.054Z,5.38
2016-11-28T02:37:42.221Z,5.44
2016-11-28T02:38:42.229Z,5.39
2016-11-28T02:39:42.238Z,5.44
2016-11-28T02:40:42.238Z,5.41
2016-11-28T02:41:42.255Z,5.35
2016-11-28T02:42:42.237Z,5.39
2016-11-28T02:43:42.265Z,5.29
2016-11-28T02:44:42.287Z,5.32
2016-11-28T02:45:42.285Z,5.32
2016-11-28T02:46:42.210Z,5.3
2016-11-28T02:47:42.353Z,5.33
2016-11-28T02:48:42.339Z,5.3
2016-11-28T02:49:42.336Z,5.3
2016-11-28T02:50:42.342Z,5.29
2016-11-28T02:51:42.357Z,5.32
2016-11-28T02:52:42.361Z,5.32
2016-11-28T02:53:42.368Z,5.36
2016-11-28T02:54:42.389Z,5.3
2016-11-28T02:55:42.393Z,5.3
2016-11-28T02:56:42.398Z,5.35
2016-11-28T02:57:42.404Z,5.35
2016-11-28T02:58:42.344Z,5.33
2016-11-28T02:59:42.345Z,5.3
2016-11-28T03:00:42.359Z,5.3
2016-11-28T03:01:42.369Z,5.35
2016-11-28T03:02:42.446Z,5.26
2016-11-28T03:03:42.386Z,5.33
2016-11-28T03:04:42.403Z,5.35
2016-11-28T03:05:42.413Z,5.29
2016-11-28T03:06:42.424Z,5.23
2016-11-28T03:07:42.456Z,5.25
2016-11-28T03:08:42.440Z,5.29
2016-11-28T03:09:42.458Z,5.21
2016-11-28T03:10:42.441Z,5.23
2016-11-28T03:11:42.405Z,5.25
2016-11-28T03:12:42.415Z,5.25
2016-11-28T03:13:42.431Z,5.23
2016-11-28T03:14:42.449Z,5.2
2016-11-28T03:15:42.460Z,5.26
2016-11-28T03:16:42.471Z,5.28
2016-11-28T03:17:42.502Z,5.26
2016-11-28T03:18:42.501Z,5.26
2016-11-28T03:19:42.506Z,5.23
2016-11-28T03:20:42.525Z,5.21
2016-11-28T03:21:42.538Z,5.23
2016-11-28T03:22:42.545Z,5.21
2016-11-28T03:23:42.594Z,5.18
2016-11-28T03:24:42.577Z,5.25
2016-11-28T03:25:42.587Z,5.21
2016-11-28T03:26:42.597Z,5.21
2016-11-28T03:27:42.600Z,5.23
2016-11-28T03:28:42.613Z,5.2
2016-11-28T03:29:42.944Z,5.18
2016-11-28T03:30:42.640Z,5.18
2016-11-28T03:31:42.657Z,5.21
2016-11-28T03:32:42.665Z,5.2
2016-11-28T03:33:42.680Z,5.12
2016-11-28T03:34:42.700Z,5.15
2016-11-28T03:35:42.707Z,5.21
2016-11-28T03:36:42.712Z,5.15
2016-11-28T03:37:42.728Z,5.17
2016-11-28T03:38:42.735Z,5.23
2016-11-28T03:39:42.753Z,5.11
2016-11-28T03:40:42.767Z,5.18
2016-11-28T03:41:42.776Z,5.21
2016-11-28T03:42:42.795Z,5.18
2016-11-28T03:43:42.796Z,5.18
2016-11-28T03:44:42.806Z,5.23
2016-11-28T03:45:42.821Z,5.23
2016-11-28T03:46:42.890Z,5.15
2016-11-28T03:47:42.851Z,5.23
2016-11-28T03:48:42.857Z,5.21
2016-11-28T03:49:42.874Z,5.15
2016-11-28T03:50:42.885Z,5.15
2016-11-28T03:51:42.894Z,5.18
2016-11-28T03:52:42.905Z,5.25
2016-11-28T03:53:42.924Z,5.18
2016-11-28T03:54:42.931Z,5.15
2016-11-28T03:55:42.947Z,5.17
2016-11-28T03:56:42.983Z,5.14
2016-11-28T03:57:42.965Z,5.23
2016-11-28T03:58:42.984Z,5.2
2016-11-28T03:59:42.996Z,5.25
2016-11-28T04:00:43.004Z,5.21
2016-11-28T04:01:43.016Z,5.21
2016-11-28T04:02:43.031Z,5.2
2016-11-28T04:03:43.044Z,5.17
2016-11-28T04:04:43.055Z,5.12
2016-11-28T04:05:43.072Z,5.15
2016-11-28T04:06:43.076Z,5.1
2016-11-28T04:07:43.090Z,5.14
2016-11-28T04:08:43.096Z,5.23
2016-11-28T04:09:43.110Z,5.1
2016-11-28T04:10:43.190Z,5.23
2016-11-28T04:11:43.237Z,5.15
2016-11-28T04:12:43.154Z,5.15
2016-11-28T04:13:43.161Z,5.12
2016-11-28T04:14:43.176Z,5.23
2016-11-28T04:15:43.190Z,5.12
2016-11-28T04:16:43.315Z,5.1
2016-11-28T04:17:43.214Z,5.18
2016-11-28T04:18:43.336Z,5.18
2016-11-28T04:19:43.234Z,5.12
2016-11-28T04:20:43.242Z,5.11
2016-11-28T04:21:43.255Z,5.14
2016-11-28T04:22:43.281Z,5.23
2016-11-28T04:23:43.281Z,5.18
2016-11-28T04:24:43.290Z,5.17
2016-11-28T04:25:43.329Z,5.12
2016-11-28T04:26:43.315Z,5.15
2016-11-28T04:27:43.329Z,5.14
2016-11-28T04:28:43.391Z,5.15
2016-11-28T04:29:43.350Z,5.14
2016-11-28T04:30:43.371Z,5.1
2016-11-28T04:31:43.375Z,5.17
2016-11-28T04:32:43.391Z,5.14
2016-11-28T04:33:43.415Z,5.12
2016-11-28T04:34:43.453Z,5.11
2016-11-28T04:35:43.425Z,5.08
2016-11-28T04:36:43.442Z,5.07
2016-11-28T04:37:43.451Z,5.14
2016-11-28T04:38:43.465Z,5.14
2016-11-28T04:39:43.472Z,5.07
2016-11-28T04:40:43.489Z,5.08
2016-11-28T04:41:43.497Z,5.15
2016-11-28T04:42:43.513Z,5.08
2016-11-28T04:43:43.524Z,5.04
2016-11-28T04:44:43.532Z,5.14
2016-11-28T04:45:43.552Z,5.11
2016-11-28T04:46:43.559Z,5.12
2016-11-28T04:47:43.577Z,5.14
2016-11-28T04:48:43.591Z,5.12
2016-11-28T04:49:43.593Z,5.07
2016-11-28T04:50:43.609Z,5.11
2016-11-28T04:51:43.615Z,5.11
2016-11-28T04:52:43.636Z,5.1
2016-11-28T04:53:43.646Z,5.1
2016-11-28T04:54:43.658Z,5.07
2016-11-28T04:55:43.668Z,5.08
2016-11-28T04:56:43.680Z,5.05
2016-11-28T04:57:43.689Z,5.12
2016-11-28T04:58:43.704Z,5.07
2016-11-28T04:59:43.712Z,5.11
2016-11-28T05:00:43.731Z,5.11
2016-11-28T05:01:43.735Z,5.12
2016-11-28T05:02:44.072Z,5.11
2016-11-28T05:03:43.761Z,5.11
2016-11-28T05:04:43.778Z,5.08
2016-11-28T05:05:43.786Z,5.07
2016-11-28T05:06:43.799Z,5.08
2016-11-28T05:07:43.814Z,5.08
2016-11-28T05:08:43.828Z,5.08
2016-11-28T05:09:43.834Z,5.08
2016-11-28T05:10:43.845Z,5.04
2016-11-28T05:11:43.859Z,5.1
2016-11-28T05:12:43.871Z,5.11
2016-11-28T05:13:43.889Z,5.1
2016-11-28T05:14:43.890Z,5.1
2016-11-28T05:15:43.905Z,5.08
2016-11-28T05:16:43.925Z,5.07
2016-11-28T05:17:43.929Z,5.07
2016-11-28T05:18:43.946Z,5.08
2016-11-28T05:19:43.962Z,5.05
2016-11-28T05:20:43.974Z,5.07
2016-11-28T05:21:43.981Z,5.07
2016-11-28T05:22:43.994Z,5.07
2016-11-28T05:23:44.010Z,5.08
2016-11-28T05:24:44.020Z,5.08
2016-11-28T05:25:44.033Z,5.11
2016-11-28T05:26:44.038Z,5.08
2016-11-28T05:27:44.053Z,5.12
2016-11-28T05:28:44.065Z,5.1
2016-11-28T05:29:44.074Z,5.02
2016-11-28T05:30:44.093Z,5.07
2016-11-28T05:31:44.116Z,4.99
2016-11-28T05:32:44.117Z,5.02
2016-11-28T05:33:44.128Z,5.04
2016-11-28T05:34:44.136Z,5.04
2016-11-28T05:35:44.150Z,5.07
2016-11-28T05:36:44.157Z,5.08
2016-11-28T05:37:44.170Z,5.05
2016-11-28T05:38:44.195Z,5.07
2016-11-28T05:39:44.198Z,4.99
2016-11-28T05:40:44.209Z,4.96
2016-11-28T05:41:44.220Z,5
2016-11-28T05:42:44.235Z,4.99
2016-11-28T05:43:44.247Z,5
2016-11-28T05:44:44.268Z,4.99
2016-11-28T05:45:44.279Z,4.97
2016-11-28T05:46:44.281Z,5.04
2016-11-28T05:47:44.291Z,4.99
2016-11-28T05:48:44.332Z,4.92
2016-11-28T05:49:44.328Z,4.97
2016-11-28T05:50:44.336Z,5.04
2016-11-28T05:51:44.657Z,5.04
2016-11-28T05:52:44.355Z,4.97
2016-11-28T05:53:44.360Z,4.9
2016-11-28T05:54:44.371Z,4.93
2016-11-28T05:55:44.388Z,5.08
2016-11-28T05:56:44.403Z,4.92
2016-11-28T05:57:44.412Z,4.96
2016-11-28T05:58:44.423Z,5.08
2016-11-28T05:59:44.440Z,4.89
2016-11-28T06:00:44.451Z,4.92
2016-11-28T06:01:44.460Z,4.89
2016-11-28T06:02:44.469Z,4.99
2016-11-28T06:03:44.486Z,4.96
2016-11-28T06:04:44.530Z,4.96
2016-11-28T06:05:44.504Z,4.93
2016-11-28T06:06:44.521Z,4.84
2016-11-28T06:07:44.530Z,4.96
2016-11-28T06:08:44.584Z,4.93
2016-11-28T06:09:44.677Z,4.93
2016-11-28T06:10:44.575Z,4.84
2016-11-28T06:11:44.579Z,4.94
2016-11-28T06:12:44.592Z,4.89
2016-11-28T06:13:44.607Z,4.93
2016-11-28T06:14:44.623Z,4.84
2016-11-28T06:15:44.625Z,4.86
2016-11-28T06:16:44.642Z,4.89
2016-11-28T06:17:44.653Z,4.9
2016-11-28T06:18:44.664Z,4.9
2016-11-28T06:19:44.766Z,4.9
2016-11-28T06:20:44.803Z,4.94
2016-11-28T06:21:44.699Z,4.9
2016-11-28T06:22:44.717Z,4.92
2016-11-28T06:23:45.082Z,4.89
2016-11-28T06:24:44.732Z,4.89
2016-11-28T06:25:44.752Z,4.93
2016-11-28T06:26:44.759Z,4.93
2016-11-28T06:27:44.771Z,4.9
2016-11-28T06:28:46.533Z,4.89
2016-11-28T06:29:44.797Z,4.87
2016-11-28T06:30:44.806Z,4.94
2016-11-28T06:31:44.816Z,4.87
2016-11-28T06:32:44.827Z,4.87
2016-11-28T06:33:44.835Z,4.94
2016-11-28T06:34:44.851Z,4.9
2016-11-28T06:35:44.867Z,4.82
2016-11-28T06:36:44.875Z,4.92
2016-11-28T06:37:45.059Z,4.89
2016-11-28T06:38:45.061Z,4.84
2016-11-28T06:39:44.912Z,4.84
2016-11-28T06:40:44.928Z,4.9
2016-11-28T06:41:44.933Z,4.86
2016-11-28T06:42:45.038Z,4.82
2016-11-28T06:43:44.956Z,4.78
2016-11-28T06:44:44.973Z,4.68
2016-11-28T06:45:44.980Z,4.82
2016-11-28T06:46:45.036Z,4.77
2016-11-28T06:47:45.001Z,4.68
2016-11-28T06:48:45.044Z,4.63
2016-11-28T06:49:45.148Z,4.56
2016-11-28T06:50:45.224Z,4.53
2016-11-28T06:51:45.056Z,4.6
2016-11-28T06:52:45.063Z,4.62
2016-11-28T06:53:45.075Z,4.56
2016-11-28T06:54:45.092Z,4.62
2016-11-28T06:55:45.104Z,4.58
2016-11-28T06:56:45.112Z,4.52
2016-11-28T06:57:45.125Z,4.6
2016-11-28T06:58:45.134Z,4.52
2016-11-28T06:59:45.147Z,4.5
2016-11-28T07:00:45.158Z,4.5
2016-11-28T07:01:45.260Z,4.49
2016-11-28T07:02:45.271Z,4.49
2016-11-28T07:03:45.193Z,4.49
2016-11-28T07:04:45.205Z,4.5
2016-11-28T07:05:45.222Z,4.4
2016-11-28T07:06:45.234Z,4.4
2016-11-28T07:07:45.244Z,4.35
2016-11-28T07:08:45.249Z,4.35
2016-11-28T07:09:45.270Z,4.32
2016-11-28T07:10:45.272Z,4.3
2016-11-28T07:11:45.400Z,4.31
2016-11-28T07:12:45.311Z,4.28
2016-11-28T07:13:45.307Z,4.28
2016-11-28T07:14:45.336Z,4.24
2016-11-28T07:15:45.337Z,4.28
2016-11-28T07:16:45.351Z,4.32
2016-11-28T07:17:45.371Z,4.31
2016-11-28T07:18:45.371Z,4.28
2016-11-28T07:19:45.394Z,4.28
2016-11-28T07:20:45.392Z,4.3
2016-11-28T07:21:45.409Z,4.31
2016-11-28T07:22:45.417Z,4.31
2016-11-28T07:23:45.431Z,4.26
2016-11-28T07:24:45.441Z,4.3
2016-11-28T07:25:45.454Z,4.3
2016-11-28T07:26:45.471Z,4.32
2016-11-28T07:27:45.478Z,4.4
2016-11-28T07:28:45.484Z,4.32
2016-11-28T07:29:45.504Z,4.38
2016-11-28T07:30:45.514Z,4.37
2016-11-28T07:31:45.527Z,4.34
2016-11-28T07:32:45.854Z,4.4
2016-11-28T07:33:45.549Z,4.37
2016-11-28T07:34:45.868Z,4.34
2016-11-28T07:35:45.569Z,4.4
2016-11-28T07:36:45.610Z,4.38
2016-11-28T07:37:45.593Z,4.4
2016-11-28T07:38:45.922Z,4.37
2016-11-28T07:39:45.625Z,4.42
2016-11-28T07:40:45.639Z,4.38
2016-11-28T07:41:45.667Z,4.41
2016-11-28T07:42:45.652Z,4.41
2016-11-28T07:43:45.661Z,4.37
2016-11-28T07:44:45.676Z,4.48
2016-11-28T07:45:45.695Z,4.42
2016-11-28T07:46:45.696Z,4.5
2016-11-28T07:47:45.706Z,4.49
2016-11-28T07:48:45.724Z,4.45
2016-11-28T07:49:45.835Z,4.45
2016-11-28T07:50:45.855Z,4.49
2016-11-28T07:51:45.860Z,4.5
2016-11-28T07:52:45.878Z,4.52
2016-11-28T07:53:45.900Z,4.55
2016-11-28T07:54:45.912Z,4.48
2016-11-28T07:55:45.918Z,4.42
2016-11-28T07:56:45.817Z,4.49
2016-11-28T07:57:45.818Z,4.44
2016-11-28T07:58:45.831Z,4.49
2016-11-28T07:59:45.844Z,4.48
2016-11-28T08:00:45.858Z,4.42
2016-11-28T08:01:45.868Z,4.53
2016-11-28T08:03:17.952Z,4.48
2016-11-28T08:03:45.927Z,4.45
2016-11-28T08:04:45.910Z,4.53
2016-11-28T08:05:45.917Z,4.48
2016-11-28T08:06:45.948Z,4.44
2016-11-28T08:07:46.039Z,4.49
2016-11-28T08:08:45.947Z,4.48
2016-11-28T08:09:45.960Z,4.53
2016-11-28T08:10:45.975Z,4.5
2016-11-28T08:11:45.984Z,4.48
2016-11-28T08:12:45.996Z,4.44
2016-11-28T08:13:46.003Z,4.44
2016-11-28T08:14:46.018Z,4.5
2016-11-28T08:15:46.025Z,4.48
2016-11-28T08:16:46.048Z,4.48
2016-11-28T08:17:46.054Z,4.44
2016-11-28T08:18:46.071Z,4.55
2016-11-28T08:19:46.083Z,4.48
2016-11-28T08:20:46.089Z,4.49
2016-11-28T08:21:46.102Z,4.53
2016-11-28T08:22:46.114Z,4.55
2016-11-28T08:23:46.116Z,4.52
2016-11-28T08:24:46.308Z,4.58
2016-11-28T08:25:46.150Z,4.52
2016-11-28T08:26:46.154Z,4.58
2016-11-28T08:27:46.168Z,4.6
2016-11-28T08:28:46.181Z,4.6
2016-11-28T08:29:46.195Z,4.59
2016-11-28T08:30:46.202Z,4.53
2016-11-28T08:31:46.208Z,4.58
2016-11-28T08:32:46.224Z,4.56
2016-11-28T08:33:46.246Z,4.53
2016-11-28T08:34:46.243Z,4.56
2016-11-28T08:35:46.256Z,4.56
2016-11-28T08:36:46.279Z,4.59
2016-11-28T08:37:46.286Z,4.58
2016-11-28T08:38:46.293Z,4.6
2016-11-28T08:39:46.422Z,4.55
2016-11-28T08:40:46.434Z,4.55
2016-11-28T08:41:46.424Z,4.52
2016-11-28T08:42:46.448Z,4.59
2016-11-28T08:43:46.612Z,4.67
2016-11-28T08:44:46.479Z,4.67
2016-11-28T08:45:46.493Z,4.62
2016-11-28T08:46:46.499Z,4.7
2016-11-28T08:47:46.511Z,4.73
2016-11-28T08:48:46.494Z,4.73
2016-11-28T08:49:46.647Z,4.68
2016-11-28T08:50:46.660Z,4.7
2016-11-28T08:51:46.781Z,4.7
2016-11-28T08:52:46.571Z,4.73
2016-11-28T08:53:46.582Z,4.82
2016-11-28T08:54:46.582Z,4.87
2016-11-28T08:55:46.496Z,4.82
2016-11-28T08:56:46.493Z,4.86
2016-11-28T08:57:46.510Z,4.87
2016-11-28T08:58:46.517Z,4.77
2016-11-28T08:59:46.922Z,4.9
2016-11-28T09:00:46.544Z,4.87
2016-11-28T09:01:46.564Z,4.93
2016-11-28T09:02:46.878Z,4.9
2016-11-28T09:03:46.572Z,4.87
2016-11-28T09:04:46.584Z,4.97
2016-11-28T09:05:46.606Z,4.94
2016-11-28T09:06:46.719Z,5.05
2016-11-28T09:07:46.736Z,5.07
2016-11-28T09:08:46.753Z,4.99
2016-11-28T09:09:46.645Z,4.99
2016-11-28T09:10:46.735Z,5.05
2016-11-28T09:11:46.781Z,5.02
2016-11-28T09:12:46.751Z,5.1
2016-11-28T09:13:46.792Z,5.1
2016-11-28T09:14:46.793Z,5.14
2016-11-28T09:15:46.820Z,5.14
2016-11-28T09:16:46.846Z,5.14
2016-11-28T09:17:46.729Z,5.23
2016-11-28T09:18:46.762Z,5.2
2016-11-28T09:19:46.753Z,5.25
2016-11-28T09:20:46.790Z,5.23
2016-11-28T09:21:46.905Z,5.25
2016-11-28T09:22:46.796Z,5.3
2016-11-28T09:23:46.798Z,5.26
2016-11-28T09:24:46.810Z,5.21
2016-11-28T09:25:46.912Z,5.32
2016-11-28T09:26:46.839Z,5.35
2016-11-28T09:27:46.848Z,5.39
2016-11-28T09:28:46.859Z,5.32
2016-11-28T09:29:46.867Z,5.29
2016-11-28T09:30:46.884Z,5.33
2016-11-28T09:31:46.904Z,5.26
2016-11-28T09:32:46.901Z,5.29
2016-11-28T09:33:46.923Z,5.36
2016-11-28T09:34:46.945Z,5.44
2016-11-28T09:35:46.935Z,5.38
2016-11-28T09:36:46.948Z,5.39
2016-11-28T09:37:46.969Z,5.39
2016-11-28T09:38:46.974Z,5.5
2016-11-28T09:39:46.992Z,5.5
2016-11-28T09:40:47.007Z,5.57
2016-11-28T09:41:47.013Z,5.56
2016-11-28T09:42:47.033Z,5.62
2016-11-28T09:43:47.031Z,5.66
2016-11-28T09:44:47.055Z,5.65
2016-11-28T09:45:47.073Z,5.61
2016-11-28T09:46:47.108Z,5.65
2016-11-28T09:47:47.091Z,5.66
2016-11-28T09:48:47.118Z,5.59
2016-11-28T09:49:47.139Z,5.66
2016-11-28T09:50:47.118Z,5.79
2016-11-28T09:51:47.156Z,5.76
2016-11-28T09:52:47.139Z,5.68
2016-11-28T09:53:47.152Z,5.73
2016-11-28T09:54:47.170Z,5.79
2016-11-28T09:55:47.178Z,5.79
2016-11-28T09:56:47.188Z,5.82
2016-11-28T09:57:47.204Z,5.76
2016-11-28T09:58:47.216Z,5.84
2016-11-28T09:59:47.222Z,5.82
2016-11-28T10:00:47.234Z,5.73
2016-11-28T10:01:47.251Z,5.87
2016-11-28T10:02:47.272Z,5.87
2016-11-28T10:03:47.594Z,5.91
2016-11-28T10:04:47.284Z,5.87
2016-11-28T10:05:47.295Z,5.89
2016-11-28T10:06:47.304Z,5.87
2016-11-28T10:07:47.326Z,5.84
2016-11-28T10:08:47.326Z,5.83
2016-11-28T10:09:47.349Z,5.82
2016-11-28T10:10:47.395Z,5.91
2016-11-28T10:11:47.366Z,5.79
2016-11-28T10:12:47.406Z,5.82
2016-11-28T10:13:47.701Z,5.84
2016-11-28T10:14:47.430Z,5.73
2016-11-28T10:15:47.418Z,5.83
2016-11-28T10:16:47.431Z,5.9
2016-11-28T10:17:47.442Z,5.87
2016-11-28T10:18:47.449Z,5.93
2016-11-28T10:19:47.467Z,5.94
2016-11-28T10:20:47.479Z,5.98
2016-11-28T10:21:47.497Z,5.94
2016-11-28T10:22:47.506Z,5.98
2016-11-28T10:23:47.513Z,6.04
2016-11-28T10:24:47.524Z,6.12
2016-11-28T10:25:47.545Z,6.17
2016-11-28T10:26:47.562Z,6.17
2016-11-28T10:27:47.565Z,6.09
2016-11-28T10:28:47.572Z,6.2
2016-11-28T10:29:47.584Z,6.22
2016-11-28T10:30:47.969Z,6.24
2016-11-28T10:31:47.619Z,6.31
2016-11-28T10:32:48.182Z,6.33
2016-11-28T10:33:47.645Z,6.39
2016-11-28T10:34:48.397Z,6.42
2016-11-28T10:35:47.672Z,6.46
2016-11-28T10:36:48.048Z,6.45
2016-11-28T10:37:47.716Z,6.45
2016-11-28T10:38:48.428Z,6.54
2016-11-28T10:39:48.067Z,6.59
2016-11-28T10:40:48.101Z,6.52
2016-11-28T10:41:47.796Z,6.57
2016-11-28T10:42:47.745Z,6.54
2016-11-28T10:43:48.299Z,6.52
2016-11-28T10:44:48.089Z,6.54
2016-11-28T10:45:47.778Z,6.56
2016-11-28T10:46:47.794Z,6.48
2016-11-28T10:47:47.811Z,6.56
2016-11-28T10:48:47.827Z,6.59
2016-11-28T10:49:47.834Z,6.6
2016-11-28T10:50:47.849Z,6.52
2016-11-28T10:51:47.861Z,6.52
2016-11-28T10:52:47.872Z,6.57
2016-11-28T10:54:05.543Z,6.54
2016-11-28T10:54:47.900Z,6.56
2016-11-28T10:55:47.907Z,6.48
2016-11-28T10:56:47.915Z,6.54
2016-11-28T10:57:47.931Z,6.6
2016-11-28T10:58:47.959Z,6.52
2016-11-28T10:59:47.968Z,6.54
2016-11-28T11:00:47.978Z,6.56
2016-11-28T11:01:47.996Z,6.57
2016-11-28T11:03:04.748Z,6.51
2016-11-28T11:03:48.015Z,6.56
2016-11-28T11:04:48.020Z,6.48
2016-11-28T11:05:48.031Z,6.64
2016-11-28T11:06:48.047Z,6.64
2016-11-28T11:07:48.056Z,6.64
2016-11-28T11:08:48.074Z,6.66
2016-11-28T11:09:48.081Z,6.64
2016-11-28T11:10:48.090Z,6.63
2016-11-28T11:11:48.104Z,6.67
2016-11-28T11:12:48.123Z,6.78
2016-11-28T11:13:48.133Z,6.69
2016-11-28T11:14:48.150Z,6.77
2016-11-28T11:15:48.157Z,6.77
2016-11-28T11:16:48.175Z,6.77
2016-11-28T11:17:48.191Z,6.79
2016-11-28T11:18:48.196Z,6.84
2016-11-28T11:19:48.212Z,6.81
2016-11-28T11:20:48.225Z,6.82
2016-11-28T11:21:48.233Z,6.75
2016-11-28T11:22:48.245Z,6.81
2016-11-28T11:23:48.259Z,6.89
2016-11-28T11:24:48.276Z,6.87
2016-11-28T11:25:48.286Z,6.92
2016-11-28T11:26:48.301Z,6.87
2016-11-28T11:27:48.311Z,6.93
2016-11-28T11:28:48.325Z,6.85
2016-11-28T11:29:48.341Z,6.87
2016-11-28T11:30:48.347Z,6.88
2016-11-28T11:31:48.358Z,6.92
2016-11-28T11:32:48.379Z,6.95
2016-11-28T11:33:48.388Z,6.92
2016-11-28T11:34:48.403Z,6.92
2016-11-28T11:35:48.426Z,7.06
2016-11-28T11:36:48.429Z,7
2016-11-28T11:37:48.441Z,7.05
2016-11-28T11:38:48.454Z,7.06
2016-11-28T11:39:48.579Z,7.18
2016-11-28T11:40:48.674Z,7.2
2016-11-28T11:41:48.676Z,7.2
2016-11-28T11:42:48.690Z,7.17
2016-11-28T11:43:48.697Z,7.15
2016-11-28T11:44:48.707Z,7.21
2016-11-28T11:45:48.714Z,7.18
2016-11-28T11:46:48.758Z,7.2
2016-11-28T11:47:48.671Z,7.13
2016-11-28T11:48:48.672Z,7.18
2016-11-28T11:49:48.701Z,7.21
2016-11-28T11:50:48.686Z,7.15
2016-11-28T11:51:48.712Z,7.07
2016-11-28T11:52:48.726Z,7.05
2016-11-28T11:53:48.732Z,7.06
2016-11-28T11:54:48.734Z,7
2016-11-28T11:55:48.755Z,7.02
2016-11-28T11:56:48.746Z,6.95
2016-11-28T11:57:48.750Z,6.92
2016-11-28T11:58:48.756Z,6.95
2016-11-28T11:59:48.726Z,6.97
2016-11-28T12:00:48.752Z,6.88
2016-11-28T12:01:48.749Z,6.92
2016-11-28T12:02:48.763Z,6.89
2016-11-28T12:03:48.776Z,7.03
2016-11-28T12:04:48.791Z,7.07
2016-11-28T12:05:48.803Z,7.07
2016-11-28T12:06:48.813Z,7.07
2016-11-28T12:07:48.824Z,7.15
2016-11-28T12:08:48.841Z,7.17
2016-11-28T12:09:48.904Z,7.18
2016-11-28T12:10:48.865Z,7.14
2016-11-28T12:11:48.909Z,7.15
2016-11-28T12:12:48.891Z,7.13
2016-11-28T12:13:48.908Z,7.24
2016-11-28T12:14:48.918Z,7.18
2016-11-28T12:15:48.938Z,7.18
2016-11-28T12:16:48.946Z,7.28
2016-11-28T12:17:48.961Z,7.32
2016-11-28T12:18:48.981Z,7.28
2016-11-28T12:19:48.985Z,7.33
2016-11-28T12:20:48.995Z,7.33
2016-11-28T12:21:49.015Z,7.36
2016-11-28T12:22:49.036Z,7.33
2016-11-28T12:23:49.042Z,7.32
2016-11-28T12:24:49.052Z,7.32
2016-11-28T12:25:49.063Z,7.31
2016-11-28T12:26:49.079Z,7.28
2016-11-28T12:27:49.110Z,7.36
2016-11-28T12:28:49.105Z,7.36
2016-11-28T12:29:49.436Z,7.38
2016-11-28T12:30:49.135Z,7.39
2016-11-28T12:31:49.144Z,7.47
2016-11-28T12:32:49.154Z,7.43
2016-11-28T12:33:49.172Z,7.38
2016-11-28T12:34:49.195Z,7.33
2016-11-28T12:35:49.196Z,7.38
2016-11-28T12:36:49.210Z,7.39
2016-11-28T12:37:49.230Z,7.45
2016-11-28T12:38:49.253Z,7.47
2016-11-28T12:39:49.253Z,7.48
2016-11-28T12:40:49.264Z,7.43
2016-11-28T12:41:49.278Z,7.45
2016-11-28T12:42:49.307Z,7.47
2016-11-28T12:43:49.616Z,7.4
2016-11-28T12:44:49.328Z,7.42
2016-11-28T12:45:49.333Z,7.43
2016-11-28T12:46:49.344Z,7.43
2016-11-28T12:47:49.707Z,7.43
2016-11-28T12:48:49.374Z,7.45
2016-11-28T12:49:49.386Z,7.43
2016-11-28T12:50:49.403Z,7.51
2016-11-28T12:51:49.415Z,7.42
2016-11-28T12:52:49.435Z,7.51
2016-11-28T12:53:49.440Z,7.48
2016-11-28T12:54:49.460Z,7.51
2016-11-28T12:55:49.470Z,7.43
2016-11-28T12:56:49.488Z,7.48
2016-11-28T12:57:49.493Z,7.47
2016-11-28T12:58:49.504Z,7.5
2016-11-28T12:59:49.524Z,7.39
2016-11-28T13:00:49.534Z,7.47
2016-11-28T13:01:49.547Z,7.43
2016-11-28T13:02:49.561Z,7.51
2016-11-28T13:03:49.577Z,7.48
2016-11-28T13:04:49.591Z,7.51
2016-11-28T13:05:49.621Z,7.45
2016-11-28T13:06:49.614Z,7.47
2016-11-28T13:07:49.629Z,7.42
2016-11-28T13:08:49.639Z,7.45
2016-11-28T13:09:49.657Z,7.48
2016-11-28T13:10:49.667Z,7.43
2016-11-28T13:11:49.685Z,7.42
2016-11-28T13:12:49.696Z,7.48
2016-11-28T13:13:49.710Z,7.43
2016-11-28T13:14:49.723Z,7.45
2016-11-28T13:15:49.738Z,7.47
2016-11-28T13:16:49.760Z,7.43
2016-11-28T13:17:49.764Z,7.38
2016-11-28T13:18:49.782Z,7.38
2016-11-28T13:19:49.794Z,7.29
2016-11-28T13:20:49.805Z,7.38
2016-11-28T13:21:49.817Z,7.31